sensor_id;sensor_type;location;lat;lon;timestamp;pressure;altitude;pressure_sealevel;temperature;humidity
13068;BME280;6600;51.362;6.686;2023-02-05T00:01:52;103265.53;;;7.97;100.00
13068;BME280;6600;51.362;6.686;2023-02-05T00:04:18;103263.84;;;7.96;100.00
13068;BME280;6600;51.362;6.686;2023-02-05T00:06:44;103254.03;;;7.97;100.00
13068;BME280;6600;51.362;6.686;2023-02-05T00:09:10;103257.69;;;7.96;100.00
13068;BME280;6600;51.362;6.686;2023-02-05T00:11:35;103249.22;;;7.91;100.00
13068;BME280;6600;51.362;6.686;2023-02-05T00:14:00;103245.88;;;7.89;100.00
13068;BME280;6600;51.362;6.686;2023-02-05T00:16:26;103241.63;;;7.86;100.00
13068;BME280;6600;51.362;6.686;2023-02-05T00:18:52;103246.00;;;7.87;100.00
13068;BME280;6600;51.362;6.686;2023-02-05T00:21:18;103234.47;;;7.87;100.00
13068;BME280;6600;51.362;6.686;2023-02-05T00:23:44;103235.13;;;7.79;100.00
13068;BME280;6600;51.362;6.686;2023-02-05T00:26:10;103227.28;;;7.78;100.00
13068;BME280;6600;51.362;6.686;2023-02-05T00:28:37;103228.97;;;7.79;100.00
13068;BME280;6600;51.362;6.686;2023-02-05T00:31:08;103225.59;;;7.77;100.00
13068;BME280;6600;51.362;6.686;2023-02-05T00:33:33;103222.22;;;7.75;100.00
13068;BME280;6600;51.362;6.686;2023-02-05T00:35:59;103217.16;;;7.72;100.00
13068;BME280;6600;51.362;6.686;2023-02-05T00:38:24;103221.78;;;7.70;100.00
13068;BME280;6600;51.362;6.686;2023-02-05T00:40:49;103214.63;;;7.70;100.00
13068;BME280;6600;51.362;6.686;2023-02-05T00:43:15;103204.78;;;7.71;100.00
13068;BME280;6600;51.362;6.686;2023-02-05T00:45:40;103201.44;;;7.69;100.00
13068;BME280;6600;51.362;6.686;2023-02-05T00:48:06;103203.38;;;7.67;100.00
13068;BME280;6600;51.362;6.686;2023-02-05T00:50:32;103196.34;;;7.66;100.00
13068;BME280;6600;51.362;6.686;2023-02-05T00:52:58;103187.91;;;7.60;100.00
13068;BME280;6600;51.362;6.686;2023-02-05T00:55:24;103182.28;;;7.63;100.00
13068;BME280;6600;51.362;6.686;2023-02-05T00:57:50;103187.63;;;7.63;100.00
13068;BME280;6600;51.362;6.686;2023-02-05T01:00:15;103187.75;;;7.62;100.00
13068;BME280;6600;51.362;6.686;2023-02-05T01:02:41;103179.19;;;7.58;100.00
13068;BME280;6600;51.362;6.686;2023-02-05T01:05:07;103186.66;;;7.65;100.00
13068;BME280;6600;51.362;6.686;2023-02-05T01:07:32;103182.28;;;7.63;100.00
13068;BME280;6600;51.362;6.686;2023-02-05T01:09:57;103176.97;;;7.63;100.00
13068;BME280;6600;51.362;6.686;2023-02-05T01:12:23;103164.59;;;7.62;100.00
13068;BME280;6600;51.362;6.686;2023-02-05T01:14:48;103162.94;;;7.61;100.00
13068;BME280;6600;51.362;6.686;2023-02-05T01:17:14;103164.59;;;7.62;100.00
13068;BME280;6600;51.362;6.686;2023-02-05T01:19:39;103155.88;;;7.60;100.00
13068;BME280;6600;51.362;6.686;2023-02-05T01:22:05;103169.63;;;7.56;100.00
13068;BME280;6600;51.362;6.686;2023-02-05T01:24:31;103178.88;;;7.52;100.00
13068;BME280;6600;51.362;6.686;2023-02-05T01:26:57;103178.63;;;7.55;100.00
13068;BME280;6600;51.362;6.686;2023-02-05T01:29:24;103167.69;;;7.58;100.00
13068;BME280;6600;51.362;6.686;2023-02-05T01:31:49;103163.72;;;7.52;100.00
13068;BME280;6600;51.362;6.686;2023-02-05T01:34:14;103166.84;;;7.57;100.00
13068;BME280;6600;51.362;6.686;2023-02-05T01:36:40;103172.19;;;7.57;100.00
13068;BME280;6600;51.362;6.686;2023-02-05T01:39:05;103169.22;;;7.60;100.00
13068;BME280;6600;51.362;6.686;2023-02-05T01:41:30;103171.63;;;7.63;100.00
13068;BME280;6600;51.362;6.686;2023-02-05T01:44:15;103171.66;;;7.73;100.00
13068;BME280;6600;51.362;6.686;2023-02-05T01:46:47;103169.41;;;7.69;100.00
13068;BME280;6600;51.362;6.686;2023-02-05T01:49:20;103167.72;;;7.77;100.00
13068;BME280;6600;51.362;6.686;2023-02-05T01:51:48;103164.94;;;7.79;100.00
13068;BME280;6600;51.362;6.686;2023-02-05T01:54:16;103168.00;;;7.84;100.00
13068;BME280;6600;51.362;6.686;2023-02-05T01:56:51;103162.66;;;7.84;100.00
13068;BME280;6600;51.362;6.686;2023-02-05T01:59:20;103152.84;;;7.84;100.00
13068;BME280;6600;51.362;6.686;2023-02-05T02:01:48;103153.13;;;7.81;100.00
13068;BME280;6600;51.362;6.686;2023-02-05T02:04:18;103157.34;;;7.84;100.00
13068;BME280;6600;51.362;6.686;2023-02-05T02:06:45;103162.66;;;7.84;100.00
13068;BME280;6600;51.362;6.686;2023-02-05T02:09:10;103168.59;;;7.87;100.00
13068;BME280;6600;51.362;6.686;2023-02-05T02:11:38;103178.13;;;7.90;100.00
13068;BME280;6600;51.362;6.686;2023-02-05T02:14:05;103176.19;;;7.92;100.00
13068;BME280;6600;51.362;6.686;2023-02-05T02:16:34;103170.41;;;7.96;100.00
13068;BME280;6600;51.362;6.686;2023-02-05T02:19:02;103165.22;;;7.95;100.00
13068;BME280;6600;51.362;6.686;2023-02-05T02:21:55;103177.16;;;8.00;100.00
13068;BME280;6600;51.362;6.686;2023-02-05T02:29:31;103175.50;;;7.99;100.00
13068;BME280;6600;51.362;6.686;2023-02-05T02:32:45;103185.75;;;8.04;100.00
13068;BME280;6600;51.362;6.686;2023-02-05T02:37:54;103163.13;;;8.08;100.00
13068;BME280;6600;51.362;6.686;2023-02-05T02:40:42;103170.84;;;8.11;100.00
13068;BME280;6600;51.362;6.686;2023-02-05T02:43:13;103157.09;;;8.06;100.00
13068;BME280;6600;51.362;6.686;2023-02-05T02:45:48;103154.84;;;8.11;100.00
13068;BME280;6600;51.362;6.686;2023-02-05T02:48:17;103154.84;;;8.11;100.00
13068;BME280;6600;51.362;6.686;2023-02-05T02:50:47;103152.88;;;8.13;100.00
13068;BME280;6600;51.362;6.686;2023-02-05T02:53:16;103153.00;;;8.11;100.00
13068;BME280;6600;51.362;6.686;2023-02-05T02:55:43;103158.34;;;8.11;100.00
13068;BME280;6600;51.362;6.686;2023-02-05T02:58:18;103146.97;;;8.19;100.00
13068;BME280;6600;51.362;6.686;2023-02-05T03:00:46;103145.28;;;8.18;100.00
13068;BME280;6600;51.362;6.686;2023-02-05T03:03:14;103142.88;;;8.25;100.00
13068;BME280;6600;51.362;6.686;2023-02-05T03:05:43;103137.13;;;8.20;100.00
13068;BME280;6600;51.362;6.686;2023-02-05T03:08:15;103123.50;;;8.23;100.00
13068;BME280;6600;51.362;6.686;2023-02-05T03:10:49;103132.34;;;8.23;100.00
13068;BME280;6600;51.362;6.686;2023-02-05T03:13:16;103134.03;;;8.24;100.00
13068;BME280;6600;51.362;6.686;2023-02-05T03:15:43;103126.28;;;8.21;100.00
13068;BME280;6600;51.362;6.686;2023-02-05T03:18:10;103111.13;;;8.22;100.00
13068;BME280;6600;51.362;6.686;2023-02-05T03:21:04;103104.81;;;8.32;100.00
13068;BME280;6600;51.362;6.686;2023-02-05T03:23:30;103106.50;;;8.33;100.00
13068;BME280;6600;51.362;6.686;2023-02-05T03:25:56;103111.84;;;8.33;100.00
13068;BME280;6600;51.362;6.686;2023-02-05T03:28:21;103112.25;;;8.38;100.00
13068;BME280;6600;51.362;6.686;2023-02-05T03:31:04;103109.28;;;8.41;100.00
13068;BME280;6600;51.362;6.686;2023-02-05T03:36:19;103114.38;;;8.44;100.00
13068;BME280;6600;51.362;6.686;2023-02-05T03:41:34;103108.47;;;8.41;100.00
13068;BME280;6600;51.362;6.686;2023-02-05T03:44:47;103095.94;;;8.41;100.00
13068;BME280;6600;51.362;6.686;2023-02-05T03:47:35;103100.72;;;8.38;100.00
13068;BME280;6600;51.362;6.686;2023-02-05T03:52:49;103086.25;;;8.40;100.00
13068;BME280;6600;51.362;6.686;2023-02-05T03:55:31;103099.44;;;8.42;100.00
13068;BME280;6600;51.362;6.686;2023-02-05T03:58:03;103113.09;;;8.39;100.00
13068;BME280;6600;51.362;6.686;2023-02-05T04:00:31;103110.59;;;8.37;100.00
13068;BME280;6600;51.362;6.686;2023-02-05T04:02:57;103116.91;;;8.27;100.00
13068;BME280;6600;51.362;6.686;2023-02-05T04:05:22;103115.50;;;8.32;100.00
13068;BME280;6600;51.362;6.686;2023-02-05T04:07:51;103123.94;;;8.37;100.00
13068;BME280;6600;51.362;6.686;2023-02-05T04:10:17;103117.75;;;8.37;100.00
13068;BME280;6600;51.362;6.686;2023-02-05T04:12:43;103113.25;;;8.37;100.00
13068;BME280;6600;51.362;6.686;2023-02-05T04:15:09;103118.16;;;8.42;100.00
13068;BME280;6600;51.362;6.686;2023-02-05T04:17:36;103123.06;;;8.46;100.00
13068;BME280;6600;51.362;6.686;2023-02-05T04:20:02;103127.56;;;8.46;100.00
13068;BME280;6600;51.362;6.686;2023-02-05T04:22:27;103132.63;;;8.49;100.00
13068;BME280;6600;51.362;6.686;2023-02-05T04:24:53;103130.81;;;8.49;100.00
13068;BME280;6600;51.362;6.686;2023-02-05T04:27:18;103133.19;;;8.52;100.00
13068;BME280;6600;51.362;6.686;2023-02-05T04:29:43;103129.81;;;8.50;100.00
13068;BME280;6600;51.362;6.686;2023-02-05T04:32:09;103135.31;;;8.49;100.00
13068;BME280;6600;51.362;6.686;2023-02-05T04:34:34;103133.19;;;8.52;100.00
13068;BME280;6600;51.362;6.686;2023-02-05T04:37:00;103141.50;;;8.49;100.00
13068;BME280;6600;51.362;6.686;2023-02-05T04:39:25;103137.13;;;8.48;100.00
13068;BME280;6600;51.362;6.686;2023-02-05T04:41:51;103127.84;;;8.52;100.00
13068;BME280;6600;51.362;6.686;2023-02-05T04:44:16;103135.31;;;8.49;100.00
13068;BME280;6600;51.362;6.686;2023-02-05T04:46:41;103129.97;;;8.49;100.00
13068;BME280;6600;51.362;6.686;2023-02-05T04:49:07;103129.28;;;8.47;100.00
13068;BME280;6600;51.362;6.686;2023-02-05T04:51:32;103125.63;;;8.48;100.00
13068;BME280;6600;51.362;6.686;2023-02-05T04:53:57;103126.72;;;8.45;100.00
13068;BME280;6600;51.362;6.686;2023-02-05T04:56:23;103116.75;;;8.47;100.00
13068;BME280;6600;51.362;6.686;2023-02-05T04:58:48;103111.25;;;8.49;100.00
13068;BME280;6600;51.362;6.686;2023-02-05T05:01:16;103114.94;;;8.48;100.00
13068;BME280;6600;51.362;6.686;2023-02-05T05:03:42;103113.78;;;8.50;100.00
13068;BME280;6600;51.362;6.686;2023-02-05T05:06:08;103119.13;;;8.50;100.00
13068;BME280;6600;51.362;6.686;2023-02-05T05:08:33;103132.22;;;8.53;100.00
13068;BME280;6600;51.362;6.686;2023-02-05T05:10:59;103130.09;;;8.57;100.00
13068;BME280;6600;51.362;6.686;2023-02-05T05:13:25;103130.22;;;8.55;100.00
13068;BME280;6600;51.362;6.686;2023-02-05T05:15:54;103125.00;;;8.63;100.00
13068;BME280;6600;51.362;6.686;2023-02-05T05:18:19;103124.16;;;8.63;100.00
13068;BME280;6600;51.362;6.686;2023-02-05T05:20:45;103124.03;;;8.65;100.00
13068;BME280;6600;51.362;6.686;2023-02-05T05:23:10;103121.66;;;8.61;100.00
13068;BME280;6600;51.362;6.686;2023-02-05T05:25:43;103122.75;;;8.69;100.00
13068;BME280;6600;51.362;6.686;2023-02-05T05:28:09;103109.09;;;8.62;100.00
13068;BME280;6600;51.362;6.686;2023-02-05T05:30:37;103106.19;;;8.65;100.00
13068;BME280;6600;51.362;6.686;2023-02-05T05:33:02;103108.97;;;8.63;100.00
13068;BME280;6600;51.362;6.686;2023-02-05T05:35:28;103104.91;;;8.59;100.00
13068;BME280;6600;51.362;6.686;2023-02-05T05:37:55;103098.28;;;8.63;100.00
13068;BME280;6600;51.362;6.686;2023-02-05T05:40:21;103094.94;;;8.61;100.00
13068;BME280;6600;51.362;6.686;2023-02-05T05:43:04;103098.59;;;8.60;100.00
13068;BME280;6600;51.362;6.686;2023-02-05T05:45:48;103097.19;;;8.56;100.00
13068;BME280;6600;51.362;6.686;2023-02-05T05:48:13;103093.81;;;8.54;100.00
13068;BME280;6600;51.362;6.686;2023-02-05T05:50:39;103088.47;;;8.54;100.00
13068;BME280;6600;51.362;6.686;2023-02-05T05:53:04;103102.25;;;8.50;100.00
13068;BME280;6600;51.362;6.686;2023-02-05T05:55:29;103085.94;;;8.53;100.00
13068;BME280;6600;51.362;6.686;2023-02-05T05:57:55;103091.16;;;8.54;100.00
13068;BME280;6600;51.362;6.686;2023-02-05T06:00:20;103088.78;;;8.51;100.00
13068;BME280;6600;51.362;6.686;2023-02-05T06:02:45;103088.19;;;8.57;100.00
13068;BME280;6600;51.362;6.686;2023-02-05T06:05:11;103091.84;;;8.56;100.00
13068;BME280;6600;51.362;6.686;2023-02-05T06:07:36;103092.00;;;8.55;100.00
13068;BME280;6600;51.362;6.686;2023-02-05T06:10:02;103097.19;;;8.56;100.00
13068;BME280;6600;51.362;6.686;2023-02-05T06:12:27;103095.22;;;8.49;100.00
13068;BME280;6600;51.362;6.686;2023-02-05T06:14:52;103089.03;;;8.48;100.00
13068;BME280;6600;51.362;6.686;2023-02-05T06:17:17;103088.06;;;8.49;100.00
13068;BME280;6600;51.362;6.686;2023-02-05T06:19:43;103087.94;;;8.51;100.00
13068;BME280;6600;51.362;6.686;2023-02-05T06:22:08;103095.09;;;8.50;100.00
13068;BME280;6600;51.362;6.686;2023-02-05T06:24:33;103090.03;;;8.47;100.00
13068;BME280;6600;51.362;6.686;2023-02-05T06:26:59;103087.66;;;8.44;100.00
13068;BME280;6600;51.362;6.686;2023-02-05T06:29:24;103085.53;;;8.48;100.00
13068;BME280;6600;51.362;6.686;2023-02-05T06:31:49;103082.03;;;8.47;100.00
13068;BME280;6600;51.362;6.686;2023-02-05T06:34:15;103082.56;;;8.51;100.00
13068;BME280;6600;51.362;6.686;2023-02-05T06:36:41;103078.47;;;8.56;100.00
13068;BME280;6600;51.362;6.686;2023-02-05T06:39:06;103080.84;;;8.59;100.00
13068;BME280;6600;51.362;6.686;2023-02-05T06:41:31;103076.34;;;8.60;100.00
13068;BME280;6600;51.362;6.686;2023-02-05T06:43:56;103074.66;;;8.69;100.00
13068;BME280;6600;51.362;6.686;2023-02-05T06:46:22;103070.97;;;8.70;100.00
13068;BME280;6600;51.362;6.686;2023-02-05T06:48:47;103077.41;;;8.77;100.00
13068;BME280;6600;51.362;6.686;2023-02-05T06:51:12;103076.31;;;8.70;100.00
13068;BME280;6600;51.362;6.686;2023-02-05T06:53:37;103076.63;;;8.67;100.00
13068;BME280;6600;51.362;6.686;2023-02-05T06:56:03;103070.97;;;8.70;100.00
13068;BME280;6600;51.362;6.686;2023-02-05T06:58:29;103070.13;;;8.79;100.00
13068;BME280;6600;51.362;6.686;2023-02-05T07:00:54;103069.00;;;8.72;100.00
13068;BME280;6600;51.362;6.686;2023-02-05T07:03:19;103070.84;;;8.71;100.00
13068;BME280;6600;51.362;6.686;2023-02-05T07:05:45;103072.97;;;8.68;100.00
13068;BME280;6600;51.362;6.686;2023-02-05T07:08:10;103067.91;;;8.65;100.00
13068;BME280;6600;51.362;6.686;2023-02-05T07:10:35;103076.56;;;8.76;100.00
13068;BME280;6600;51.362;6.686;2023-02-05T07:13:01;103078.91;;;8.61;100.00
13068;BME280;6600;51.362;6.686;2023-02-05T07:15:26;103074.38;;;8.72;100.00
13068;BME280;6600;51.362;6.686;2023-02-05T07:17:51;103082.22;;;8.73;100.00
13068;BME280;6600;51.362;6.686;2023-02-05T07:20:17;103084.47;;;8.78;100.00
13068;BME280;6600;51.362;6.686;2023-02-05T07:22:43;103080.00;;;8.69;100.00
13068;BME280;6600;51.362;6.686;2023-02-05T07:25:08;103081.69;;;8.60;100.00
13068;BME280;6600;51.362;6.686;2023-02-05T07:27:33;103071.28;;;8.67;100.00
13068;BME280;6600;51.362;6.686;2023-02-05T07:29:58;103066.78;;;8.67;100.00
13068;BME280;6600;51.362;6.686;2023-02-05T07:32:24;103069.88;;;8.62;100.00
13068;BME280;6600;51.362;6.686;2023-02-05T07:34:49;103069.56;;;8.66;100.00
13068;BME280;6600;51.362;6.686;2023-02-05T07:37:15;103067.75;;;8.66;100.00
13068;BME280;6600;51.362;6.686;2023-02-05T07:39:40;103072.97;;;8.68;100.00
13068;BME280;6600;51.362;6.686;2023-02-05T07:42:05;103074.38;;;8.62;100.00
13068;BME280;6600;51.362;6.686;2023-02-05T07:44:31;103074.53;;;8.60;100.00
13068;BME280;6600;51.362;6.686;2023-02-05T07:46:56;103080.25;;;8.66;100.00
13068;BME280;6600;51.362;6.686;2023-02-05T07:49:22;103084.25;;;8.61;100.00
13068;BME280;6600;51.362;6.686;2023-02-05T07:51:47;103085.06;;;8.62;100.00
13068;BME280;6600;51.362;6.686;2023-02-05T07:54:12;103089.59;;;8.61;100.00
13068;BME280;6600;51.362;6.686;2023-02-05T07:56:39;103082.94;;;8.66;100.00
13068;BME280;6600;51.362;6.686;2023-02-05T07:59:05;103078.03;;;8.61;100.00
13068;BME280;6600;51.362;6.686;2023-02-05T08:01:31;103084.78;;;8.65;100.00
13068;BME280;6600;51.362;6.686;2023-02-05T08:03:56;103078.59;;;8.65;100.00
13068;BME280;6600;51.362;6.686;2023-02-05T08:06:22;103069.34;;;8.49;100.00
13068;BME280;6600;51.362;6.686;2023-02-05T08:08:47;103084.28;;;8.42;100.00
13068;BME280;6600;51.362;6.686;2023-02-05T08:11:14;103091.88;;;8.37;100.00
13068;BME280;6600;51.362;6.686;2023-02-05T08:13:41;103094.66;;;8.45;100.00
13068;BME280;6600;51.362;6.686;2023-02-05T08:16:06;103102.56;;;8.37;100.00
13068;BME280;6600;51.362;6.686;2023-02-05T08:18:32;103103.94;;;8.41;100.00
13068;BME280;6600;51.362;6.686;2023-02-05T08:20:57;103099.63;;;8.02;100.00
13068;BME280;6600;51.362;6.686;2023-02-05T08:23:23;103104.50;;;7.97;100.00
13068;BME280;6600;51.362;6.686;2023-02-05T08:25:55;103117.69;;;7.70;100.00
13068;BME280;6600;51.362;6.686;2023-02-05T08:28:21;103125.88;;;7.68;100.00
13068;BME280;6600;51.362;6.686;2023-02-05T08:30:46;103142.38;;;7.52;100.00
13068;BME280;6600;51.362;6.686;2023-02-05T08:33:12;103147.97;;;7.40;100.00
13068;BME280;6600;51.362;6.686;2023-02-05T08:35:37;103137.56;;;7.27;100.00
13068;BME280;6600;51.362;6.686;2023-02-05T08:38:02;103138.13;;;7.31;100.00
13068;BME280;6600;51.362;6.686;2023-02-05T08:40:28;103141.78;;;7.39;100.00
13068;BME280;6600;51.362;6.686;2023-02-05T08:42:53;103137.84;;;7.34;100.00
13068;BME280;6600;51.362;6.686;2023-02-05T08:45:21;103147.13;;;7.39;100.00
13068;BME280;6600;51.362;6.686;2023-02-05T08:47:47;103141.19;;;7.26;100.00
13068;BME280;6600;51.362;6.686;2023-02-05T08:50:12;103145.09;;;7.22;100.00
13068;BME280;6600;51.362;6.686;2023-02-05T08:52:37;103149.59;;;7.31;100.00
13068;BME280;6600;51.362;6.686;2023-02-05T08:55:03;103140.38;;;7.35;100.00
13068;BME280;6600;51.362;6.686;2023-02-05T08:57:29;103146.44;;;7.37;100.00
13068;BME280;6600;51.362;6.686;2023-02-05T08:59:55;103160.75;;;7.46;100.00
13068;BME280;6600;51.362;6.686;2023-02-05T09:02:22;103160.47;;;7.49;100.00
13068;BME280;6600;51.362;6.686;2023-02-05T09:04:47;103155.03;;;7.60;100.00
13068;BME280;6600;51.362;6.686;2023-02-05T09:07:13;103153.59;;;7.46;100.00
13068;BME280;6600;51.362;6.686;2023-02-05T09:09:38;103155.81;;;7.41;100.00
13068;BME280;6600;51.362;6.686;2023-02-05T09:12:04;103161.16;;;7.41;100.00
13068;BME280;6600;51.362;6.686;2023-02-05T09:14:29;103170.19;;;7.59;100.00
13068;BME280;6600;51.362;6.686;2023-02-05T09:17:05;103160.63;;;7.47;100.00
13068;BME280;6600;51.362;6.686;2023-02-05T09:19:35;103155.25;;;7.38;100.00
13068;BME280;6600;51.362;6.686;2023-02-05T09:22:00;103165.41;;;7.53;100.00
13068;BME280;6600;51.362;6.686;2023-02-05T09:24:26;103168.91;;;7.44;100.00
13068;BME280;6600;51.362;6.686;2023-02-05T09:26:51;103167.13;;;7.54;100.00
13068;BME280;6600;51.362;6.686;2023-02-05T09:29:17;103168.78;;;7.55;100.00
13068;BME280;6600;51.362;6.686;2023-02-05T09:31:42;103174.97;;;7.56;100.00
13068;BME280;6600;51.362;6.686;2023-02-05T09:34:07;103168.91;;;7.44;100.00
13068;BME280;6600;51.362;6.686;2023-02-05T09:36:33;103169.44;;;7.38;100.00
13068;BME280;6600;51.362;6.686;2023-02-05T09:38:58;103175.41;;;7.51;100.00
13068;BME280;6600;51.362;6.686;2023-02-05T09:41:43;103165.97;;;7.47;100.00
13068;BME280;6600;51.362;6.686;2023-02-05T09:50:01;103171.63;;;7.63;100.00
13068;BME280;6600;51.362;6.686;2023-02-05T09:52:39;103178.75;;;7.53;100.00
13068;BME280;6600;51.362;6.686;2023-02-05T09:55:19;103176.66;;;7.57;100.00
13068;BME280;6600;51.362;6.686;2023-02-05T09:57:48;103173.59;;;7.61;100.00
13068;BME280;6600;51.362;6.686;2023-02-05T10:00:20;103184.75;;;7.95;100.00
13068;BME280;6600;51.362;6.686;2023-02-05T10:02:51;103185.44;;;7.78;100.00
13068;BME280;6600;51.362;6.686;2023-02-05T10:05:20;103177.88;;;7.93;100.00
13068;BME280;6600;51.362;6.686;2023-02-05T10:08:18;103187.16;;;7.89;100.00
13068;BME280;6600;51.362;6.686;2023-02-05T10:10:48;103179.41;;;7.86;100.00
13068;BME280;6600;51.362;6.686;2023-02-05T10:13:28;103174.31;;;7.83;100.00
13068;BME280;6600;51.362;6.686;2023-02-05T10:26:52;103178.19;;;8.09;100.00
13068;BME280;6600;51.362;6.686;2023-02-05T10:32:20;103161.31;;;7.99;100.00
13068;BME280;6600;51.362;6.686;2023-02-05T10:34:52;103159.31;;;8.01;100.00
13068;BME280;6600;51.362;6.686;2023-02-05T10:40:14;103148.53;;;7.93;100.00
13068;BME280;6600;51.362;6.686;2023-02-05T10:42:46;103155.69;;;8.02;100.00
13068;BME280;6600;51.362;6.686;2023-02-05T10:45:20;103153.16;;;8.10;100.00
13068;BME280;6600;51.362;6.686;2023-02-05T10:51:00;103143.59;;;8.07;100.00
13068;BME280;6600;51.362;6.686;2023-02-05T10:53:27;103147.25;;;8.16;100.00
13068;BME280;6600;51.362;6.686;2023-02-05T10:55:53;103128.81;;;7.94;100.00
13068;BME280;6600;51.362;6.686;2023-02-05T11:00:55;103131.34;;;8.24;100.00
13068;BME280;6600;51.362;6.686;2023-02-05T11:03:21;103137.84;;;8.12;100.00
13068;BME280;6600;51.362;6.686;2023-02-05T11:05:47;103127.84;;;8.14;100.00
13068;BME280;6600;51.362;6.686;2023-02-05T11:08:37;103144.44;;;8.08;100.00
13068;BME280;6600;51.362;6.686;2023-02-05T11:11:04;103155.41;;;7.95;100.00
13068;BME280;6600;51.362;6.686;2023-02-05T11:13:30;103145.00;;;8.02;100.00
13068;BME280;6600;51.362;6.686;2023-02-05T11:16:01;103147.25;;;8.06;100.00
13068;BME280;6600;51.362;6.686;2023-02-05T11:18:41;103153.00;;;8.11;100.00
13068;BME280;6600;51.362;6.686;2023-02-05T11:21:08;103158.63;;;7.99;100.00
13068;BME280;6600;51.362;6.686;2023-02-05T11:23:35;103152.03;;;8.03;100.00
13068;BME280;6600;51.362;6.686;2023-02-05T11:26:21;103155.13;;;7.98;100.00
13068;BME280;6600;51.362;6.686;2023-02-05T11:28:47;103154.72;;;8.03;100.00
13068;BME280;6600;51.362;6.686;2023-02-05T11:31:24;103152.84;;;7.84;100.00
13068;BME280;6600;51.362;6.686;2023-02-05T11:33:50;103141.59;;;7.90;100.00
13068;BME280;6600;51.362;6.686;2023-02-05T11:36:23;103143.03;;;7.94;100.00
13068;BME280;6600;51.362;6.686;2023-02-05T11:38:54;103159.03;;;8.04;100.00
13068;BME280;6600;51.362;6.686;2023-02-05T11:41:31;103151.19;;;8.02;100.00
13068;BME280;6600;51.362;6.686;2023-02-05T11:44:02;103166.06;;;8.05;100.00
13068;BME280;6600;51.362;6.686;2023-02-05T11:46:34;103175.06;;;8.04;100.00
13068;BME280;6600;51.362;6.686;2023-02-05T11:49:06;103157.66;;;8.19;100.00
13068;BME280;6600;51.362;6.686;2023-02-05T11:54:02;103166.22;;;8.23;100.00
13068;BME280;6600;51.362;6.686;2023-02-05T11:56:28;103170.16;;;8.09;100.00
13068;BME280;6600;51.362;6.686;2023-02-05T11:59:17;103177.31;;;8.18;100.00
13068;BME280;6600;51.362;6.686;2023-02-05T12:01:44;103177.72;;;8.04;100.00
13068;BME280;6600;51.362;6.686;2023-02-05T12:09:03;103173.63;;;7.90;100.00
13068;BME280;6600;51.362;6.686;2023-02-05T12:14:35;103174.22;;;8.03;100.00
13068;BME280;6600;51.362;6.686;2023-02-05T12:17:04;103181.81;;;7.98;100.00
13068;BME280;6600;51.362;6.686;2023-02-05T12:25:51;103175.78;;;8.25;100.00
13068;BME280;6600;51.362;6.686;2023-02-05T12:34:26;103175.63;;;8.17;100.00
13068;BME280;6600;51.362;6.686;2023-02-05T12:39:52;103191.66;;;8.17;100.00
13068;BME280;6600;51.362;6.686;2023-02-05T12:45:32;103190.28;;;8.23;100.00
13068;BME280;6600;51.362;6.686;2023-02-05T12:48:21;103209.94;;;8.22;100.00
13068;BME280;6600;51.362;6.686;2023-02-05T13:04:18;103209.38;;;8.18;100.00
13068;BME280;6600;51.362;6.686;2023-02-05T13:06:56;103223.44;;;8.20;100.00
13068;BME280;6600;51.362;6.686;2023-02-05T13:12:10;103216.97;;;8.23;100.00
13068;BME280;6600;51.362;6.686;2023-02-05T13:17:37;103217.53;;;8.26;100.00
13068;BME280;6600;51.362;6.686;2023-02-05T13:20:07;103219.66;;;8.23;100.00
13068;BME280;6600;51.362;6.686;2023-02-05T13:22:55;103210.97;;;8.30;100.00
13068;BME280;6600;51.362;6.686;2023-02-05T13:25:47;103222.34;;;8.32;100.00
13068;BME280;6600;51.362;6.686;2023-02-05T13:28:56;103217.44;;;8.37;100.00
13068;BME280;6600;51.362;6.686;2023-02-05T13:33:50;103234.16;;;8.39;99.04
13068;BME280;6600;51.362;6.686;2023-02-05T13:47:48;103250.75;;;8.62;98.98
13068;BME280;6600;51.362;6.686;2023-02-05T13:50:41;103262.72;;;8.68;98.68
13068;BME280;6600;51.362;6.686;2023-02-05T13:56:16;103272.44;;;8.69;98.44
13068;BME280;6600;51.362;6.686;2023-02-05T13:59:04;103285.94;;;8.67;98.24
13068;BME280;6600;51.362;6.686;2023-02-05T14:01:42;103275.53;;;8.64;98.02
13068;BME280;6600;51.362;6.686;2023-02-05T14:07:03;103274.13;;;8.60;97.88
13068;BME280;6600;51.362;6.686;2023-02-05T14:09:33;103278.31;;;8.62;98.24
13068;BME280;6600;51.362;6.686;2023-02-05T14:12:03;103277.50;;;8.72;98.18
13068;BME280;6600;51.362;6.686;2023-02-05T14:17:00;103289.75;;;8.65;98.05
13068;BME280;6600;51.362;6.686;2023-02-05T14:22:40;103311.25;;;8.63;99.35
13068;BME280;6600;51.362;6.686;2023-02-05T14:30:49;103298.56;;;8.36;100.00
13068;BME280;6600;51.362;6.686;2023-02-05T14:33:33;103301.09;;;8.38;100.00
13068;BME280;6600;51.362;6.686;2023-02-05T14:41:17;103318.69;;;8.31;100.00
13068;BME280;6600;51.362;6.686;2023-02-05T14:43:51;103315.72;;;8.34;100.00
13068;BME280;6600;51.362;6.686;2023-02-05T14:49:06;103332.84;;;8.31;100.00
13068;BME280;6600;51.362;6.686;2023-02-05T14:51:52;103332.31;;;8.37;100.00
13068;BME280;6600;51.362;6.686;2023-02-05T14:54:23;103339.63;;;8.45;100.00
13068;BME280;6600;51.362;6.686;2023-02-05T14:56:53;103332.31;;;8.37;100.00
13068;BME280;6600;51.362;6.686;2023-02-05T14:59:40;103339.63;;;8.35;100.00
13068;BME280;6600;51.362;6.686;2023-02-05T15:02:45;103344.41;;;8.41;100.00
13068;BME280;6600;51.362;6.686;2023-02-05T15:13:30;103340.06;;;8.40;100.00
13068;BME280;6600;51.362;6.686;2023-02-05T15:18:57;103341.91;;;8.49;100.00
13068;BME280;6600;51.362;6.686;2023-02-05T15:21:29;103344.69;;;8.38;100.00
13068;BME280;6600;51.362;6.686;2023-02-05T15:26:49;103346.53;;;8.47;100.00
13068;BME280;6600;51.362;6.686;2023-02-05T15:29:24;103344.00;;;8.46;100.00
13068;BME280;6600;51.362;6.686;2023-02-05T15:31:53;103352.28;;;8.43;100.00
13068;BME280;6600;51.362;6.686;2023-02-05T15:34:29;103348.66;;;8.44;100.00
13068;BME280;6600;51.362;6.686;2023-02-05T15:37:18;103349.91;;;8.49;100.00